Time;durP1;ratioP1;P1;durP2;ratioP2;P2;SDS_P1;SDS_P2;PMS_P1;PMS_P2;Temp;Humidity;BMP_temperature;BMP_pressure;BME280_temperature;BME280_humidity;BME280_pressure;Samples;Min_cycle;Max_cycle;Signal;HPM_P1;HPM_P2
2023/08/21 00:01:52;;;;;;;133.27;94.97;;;;;;;;;;7305693;19;141319;-76
2023/08/21 00:04:19;;;;;;;129.38;93.95;;;;;;;;;;7304974;19;141157;-76
2023/08/21 00:09:48;;;;;;;99.30;74.05;;;;;;;;;;7291861;19;142863;-76
2023/08/21 00:12:15;;;;;;;86.03;69.45;;;;;;;;;;7305091;19;140545;-78
2023/08/21 00:17:45;;;;;;;99.53;77.70;;;;;;;;;;7296126;19;140771;-76
2023/08/21 00:20:12;;;;;;;105.10;80.13;;;;;;;;;;7304654;19;140340;-76
2023/08/21 00:22:39;;;;;;;125.60;90.57;;;;;;;;;;7305878;19;140824;-76
2023/08/21 00:25:06;;;;;;;99.78;76.50;;;;;;;;;;7304994;19;141816;-76
2023/08/21 00:27:34;;;;;;;127.38;91.78;;;;;;;;;;7305258;19;140864;-77
2023/08/21 00:30:01;;;;;;;122.68;89.22;;;;;;;;;;7305283;19;140690;-76
2023/08/21 00:32:28;;;;;;;130.80;93.85;;;;;;;;;;7305174;19;140741;-76
2023/08/21 00:34:55;;;;;;;138.52;98.88;;;;;;;;;;7303599;19;141854;-76
2023/08/21 00:37:24;;;;;;;145.40;100.38;;;;;;;;;;7305396;19;140677;-76
2023/08/21 00:39:51;;;;;;;140.63;96.85;;;;;;;;;;7303390;19;140960;-76
2023/08/21 00:42:18;;;;;;;135.90;94.25;;;;;;;;;;7304350;19;142951;-76
2023/08/21 00:44:45;;;;;;;140.40;97.60;;;;;;;;;;7304600;19;142958;-76
2023/08/21 00:47:12;;;;;;;140.30;98.03;;;;;;;;;;7304658;19;140652;-76
2023/08/21 00:49:40;;;;;;;149.43;102.82;;;;;;;;;;7304333;19;140669;-75
2023/08/21 00:52:09;;;;;;;158.13;106.43;;;;;;;;;;7304565;19;141551;-76
2023/08/21 00:54:36;;;;;;;109.57;81.40;;;;;;;;;;7304217;19;142166;-76
2023/08/21 00:57:04;;;;;;;97.82;76.70;;;;;;;;;;7304639;19;140689;-76
2023/08/21 00:59:31;;;;;;;123.10;89.28;;;;;;;;;;7304134;19;140760;-76
2023/08/21 01:01:58;;;;;;;135.35;95.95;;;;;;;;;;7303884;19;141604;-76
2023/08/21 01:04:25;;;;;;;132.05;92.70;;;;;;;;;;7303465;19;141735;-76
2023/08/21 01:06:52;;;;;;;140.25;98.13;;;;;;;;;;7304300;19;140489;-76
2023/08/21 01:09:38;;;;;;;136.35;95.60;;;;;;;;;;7303429;19;140619;-76
2023/08/21 01:12:23;;;;;;;131.20;92.72;;;;;;;;;;7303774;19;141430;-76
2023/08/21 01:14:54;;;;;;;99.30;76.97;;;;;;;;;;7303115;19;141841;-77
2023/08/21 01:17:22;;;;;;;117.57;87.38;;;;;;;;;;7306005;19;140957;-76
2023/08/21 01:19:51;;;;;;;109.28;82.63;;;;;;;;;;7303372;19;140625;-76
2023/08/21 01:22:19;;;;;;;127.25;92.00;;;;;;;;;;7303141;19;140497;-77
2023/08/21 01:24:46;;;;;;;134.63;97.65;;;;;;;;;;7302977;19;141097;-77
2023/08/21 01:27:14;;;;;;;133.88;95.68;;;;;;;;;;7302140;19;141044;-76
2023/08/21 01:29:41;;;;;;;138.00;98.15;;;;;;;;;;7303199;19;140802;-76
2023/08/21 01:32:17;;;;;;;146.55;101.60;;;;;;;;;;7303182;19;141117;-76
2023/08/21 01:34:51;;;;;;;142.02;99.45;;;;;;;;;;7300813;19;141996;-76
2023/08/21 01:37:18;;;;;;;126.85;90.45;;;;;;;;;;7302948;19;140521;-76
2023/08/21 01:42:54;;;;;;;145.75;100.30;;;;;;;;;;7305160;19;140666;-76
2023/08/21 01:45:21;;;;;;;145.43;101.10;;;;;;;;;;7302556;19;142765;-76
2023/08/21 01:47:48;;;;;;;149.60;102.97;;;;;;;;;;7302569;19;140695;-76
2023/08/21 01:50:15;;;;;;;151.57;103.70;;;;;;;;;;7301531;19;140636;-76
2023/08/21 01:52:42;;;;;;;140.00;97.80;;;;;;;;;;7302591;19;140478;-75
2023/08/21 01:55:10;;;;;;;137.02;94.95;;;;;;;;;;7302394;19;141096;-76
2023/08/21 01:57:37;;;;;;;143.95;100.35;;;;;;;;;;7301925;19;140888;-76
2023/08/21 02:00:04;;;;;;;146.10;102.13;;;;;;;;;;7302390;19;140499;-76
2023/08/21 02:02:31;;;;;;;139.10;96.30;;;;;;;;;;7301956;19;141765;-76
2023/08/21 02:04:59;;;;;;;138.43;96.60;;;;;;;;;;7300829;19;141911;-76
2023/08/21 02:07:26;;;;;;;139.25;97.30;;;;;;;;;;7302350;19;140534;-77
2023/08/21 02:09:53;;;;;;;144.15;100.03;;;;;;;;;;7302243;19;140776;-76
2023/08/21 02:12:20;;;;;;;135.23;94.32;;;;;;;;;;7301840;19;140946;-76
2023/08/21 02:14:47;;;;;;;126.68;90.75;;;;;;;;;;7300568;19;142075;-76
2023/08/21 02:17:14;;;;;;;135.25;95.50;;;;;;;;;;7302086;19;140654;-75
2023/08/21 02:19:41;;;;;;;145.13;101.28;;;;;;;;;;7300746;19;140661;-76
2023/08/21 02:22:08;;;;;;;141.60;99.47;;;;;;;;;;7301063;19;141116;-76
2023/08/21 02:24:35;;;;;;;137.80;95.78;;;;;;;;;;7301441;19;142152;-76
2023/08/21 02:27:03;;;;;;;132.88;93.78;;;;;;;;;;7301390;19;140478;-76
2023/08/21 02:29:30;;;;;;;133.57;94.10;;;;;;;;;;7301723;19;140445;-76
2023/08/21 02:31:57;;;;;;;137.55;95.90;;;;;;;;;;7299335;19;141079;-76
2023/08/21 02:34:24;;;;;;;139.23;97.78;;;;;;;;;;7300143;19;142143;-76
2023/08/21 02:36:51;;;;;;;144.73;100.65;;;;;;;;;;7301037;19;140844;-76
2023/08/21 02:42:17;;;;;;;28.00;25.55;;;;;;;;;;7301493;19;141870;-76
2023/08/21 02:44:46;;;;;;;32.88;30.15;;;;;;;;;;7301040;19;140781;-75
2023/08/21 02:47:13;;;;;;;41.28;37.63;;;;;;;;;;7301036;19;140422;-76
2023/08/21 02:49:40;;;;;;;16.52;15.35;;;;;;;;;;7300448;19;140461;-76
2023/08/21 02:52:08;;;;;;;19.88;18.30;;;;;;;;;;7299075;19;141139;-75
2023/08/21 02:54:35;;;;;;;36.22;33.17;;;;;;;;;;7300444;19;141906;-75
2023/08/21 02:57:02;;;;;;;16.88;15.57;;;;;;;;;;7301203;19;141045;-75
2023/08/21 02:59:29;;;;;;;36.22;33.25;;;;;;;;;;7300864;19;140692;-75
2023/08/21 03:01:56;;;;;;;35.67;32.72;;;;;;;;;;7299920;19;141976;-75
2023/08/21 03:04:23;;;;;;;15.52;14.38;;;;;;;;;;7299779;19;142540;-76
2023/08/21 03:06:50;;;;;;;38.97;35.67;;;;;;;;;;7301378;19;140486;-76
2023/08/21 03:09:17;;;;;;;26.58;24.60;;;;;;;;;;7300287;19;140598;-74
2023/08/21 03:11:44;;;;;;;44.45;40.33;;;;;;;;;;7300534;19;140931;-76
2023/08/21 03:14:11;;;;;;;41.45;37.63;;;;;;;;;;7299909;19;142169;-76
2023/08/21 03:16:45;;;;;;;60.55;42.08;;;;;;;;;;7294559;19;140517;-75
2023/08/21 03:19:12;;;;;;;55.03;49.10;;;;;;;;;;7299723;19;140596;-76
2023/08/21 03:21:39;;;;;;;36.72;33.60;;;;;;;;;;7300005;19;141580;-75
2023/08/21 03:24:07;;;;;;;39.08;35.67;;;;;;;;;;7299792;19;142016;-75
2023/08/21 03:26:34;;;;;;;44.92;40.85;;;;;;;;;;7300192;19;140535;-75
2023/08/21 03:31:49;;;;;;;45.40;41.30;;;;;;;;;;7305288;19;140779;-75
2023/08/21 03:34:16;;;;;;;62.95;54.45;;;;;;;;;;7306580;19;141216;-76
2023/08/21 03:36:44;;;;;;;63.92;56.92;;;;;;;;;;7307030;19;140478;-76
2023/08/21 03:39:11;;;;;;;52.90;47.65;;;;;;;;;;7305595;19;140604;-76
2023/08/21 03:41:38;;;;;;;53.10;47.83;;;;;;;;;;7306571;19;141918;-76
2023/08/21 03:44:05;;;;;;;45.10;40.90;;;;;;;;;;7306272;19;142168;-76
2023/08/21 03:52:23;;;;;;;51.15;46.20;;;;;;;;;;7299207;19;140926;-76
2023/08/21 03:54:50;;;;;;;58.30;52.13;;;;;;;;;;7304671;19;140738;-76
2023/08/21 03:57:17;;;;;;;72.00;60.88;;;;;;;;;;7305815;19;140328;-76
2023/08/21 03:59:44;;;;;;;77.13;64.75;;;;;;;;;;7306947;19;140672;-76
2023/08/21 04:02:12;;;;;;;55.35;49.72;;;;;;;;;;7306020;19;141490;-76
2023/08/21 04:04:39;;;;;;;59.00;52.80;;;;;;;;;;7305268;19;140741;-76
2023/08/21 04:07:06;;;;;;;64.95;57.70;;;;;;;;;;7305990;19;140662;-76
2023/08/21 04:09:33;;;;;;;59.03;52.83;;;;;;;;;;7306082;19;140660;-76
2023/08/21 04:12:00;;;;;;;63.47;56.42;;;;;;;;;;7305359;19;141114;-76
2023/08/21 04:14:27;;;;;;;54.90;49.40;;;;;;;;;;7305769;19;141766;-75
2023/08/21 04:16:54;;;;;;;56.28;50.58;;;;;;;;;;7305745;19;140441;-76
2023/08/21 04:19:21;;;;;;;58.13;52.08;;;;;;;;;;7305330;19;140681;-76
2023/08/21 04:21:48;;;;;;;68.07;58.40;;;;;;;;;;7304951;19;141844;-77
2023/08/21 04:24:15;;;;;;;68.63;58.45;;;;;;;;;;7304868;19;142692;-76
2023/08/21 04:26:42;;;;;;;65.15;57.28;;;;;;;;;;7305495;19;140554;-76
2023/08/21 04:29:09;;;;;;;95.05;73.05;;;;;;;;;;7305606;19;140701;-76
2023/08/21 04:31:36;;;;;;;99.70;77.05;;;;;;;;;;7305178;19;140947;-76
2023/08/21 04:34:04;;;;;;;73.03;61.95;;;;;;;;;;7304920;19;142773;-76
2023/08/21 04:36:30;;;;;;;72.43;61.92;;;;;;;;;;7304607;19;140801;-75
2023/08/21 04:38:57;;;;;;;96.90;75.90;;;;;;;;;;7303765;19;140616;-75
2023/08/21 04:41:24;;;;;;;95.03;75.22;;;;;;;;;;7305037;19;141076;-76
2023/08/21 04:43:52;;;;;;;66.72;58.75;;;;;;;;;;7303165;19;142280;-76
2023/08/21 04:46:19;;;;;;;77.82;65.25;;;;;;;;;;7304767;19;140411;-76
2023/08/21 04:48:46;;;;;;;81.05;66.70;;;;;;;;;;7306769;19;140640;-76
2023/08/21 04:51:14;;;;;;;72.22;60.65;;;;;;;;;;7303522;19;141094;-76
2023/08/21 04:53:41;;;;;;;69.03;59.90;;;;;;;;;;7303867;19;141327;-75
2023/08/21 04:56:08;;;;;;;75.97;63.80;;;;;;;;;;7304691;19;140454;-77
2023/08/21 04:58:35;;;;;;;71.03;60.92;;;;;;;;;;7304135;19;140500;-76
2023/08/21 05:01:04;;;;;;;72.68;62.17;;;;;;;;;;7303815;19;141222;-75
2023/08/21 05:03:31;;;;;;;90.55;71.80;;;;;;;;;;7300887;19;142091;-75
2023/08/21 05:05:58;;;;;;;91.80;73.00;;;;;;;;;;7303391;19;140350;-75
2023/08/21 05:08:26;;;;;;;99.43;76.60;;;;;;;;;;7304057;19;140503;-75
2023/08/21 05:10:56;;;;;;;106.03;80.47;;;;;;;;;;7304191;19;142546;-76
2023/08/21 05:13:24;;;;;;;109.22;82.28;;;;;;;;;;7303179;19;142395;-75
2023/08/21 05:16:16;;;;;;;110.88;82.82;;;;;;;;;;7301032;19;140575;-76
2023/08/21 05:18:43;;;;;;;103.07;77.30;;;;;;;;;;7303815;19;140683;-76
2023/08/21 05:21:11;;;;;;;100.65;77.13;;;;;;;;;;7303110;19;140561;-77
2023/08/21 05:23:38;;;;;;;97.60;75.57;;;;;;;;;;7302803;19;142024;-76
2023/08/21 05:26:05;;;;;;;101.95;78.32;;;;;;;;;;7303489;19;141297;-76
2023/08/21 05:28:32;;;;;;;115.03;84.43;;;;;;;;;;7303346;19;140689;-76
2023/08/21 05:30:59;;;;;;;111.10;82.78;;;;;;;;;;7303017;19;140982;-75
2023/08/21 05:33:26;;;;;;;119.05;87.65;;;;;;;;;;7303233;19;142644;-75
2023/08/21 05:35:53;;;;;;;114.50;85.07;;;;;;;;;;7302745;19;140708;-75
2023/08/21 05:38:20;;;;;;;129.13;93.85;;;;;;;;;;7303124;19;140888;-76
2023/08/21 05:40:48;;;;;;;134.88;95.85;;;;;;;;;;7302741;19;141772;-75
2023/08/21 05:43:16;;;;;;;139.52;97.55;;;;;;;;;;7302390;19;142287;-76
2023/08/21 05:45:43;;;;;;;141.50;99.20;;;;;;;;;;7302522;19;140629;-75
2023/08/21 05:48:10;;;;;;;136.63;96.57;;;;;;;;;;7302413;19;140387;-75
2023/08/21 05:50:37;;;;;;;140.02;99.00;;;;;;;;;;7299729;19;141991;-75
2023/08/21 05:53:04;;;;;;;133.52;94.95;;;;;;;;;;7302075;19;142183;-75
2023/08/21 05:55:32;;;;;;;142.00;98.53;;;;;;;;;;7302204;19;141282;-75
2023/08/21 05:57:59;;;;;;;131.63;93.75;;;;;;;;;;7302490;19;140688;-75
2023/08/21 06:00:26;;;;;;;130.35;93.22;;;;;;;;;;7301646;19;141006;-75
2023/08/21 06:02:53;;;;;;;129.68;93.22;;;;;;;;;;7300380;19;140629;-76
2023/08/21 06:05:20;;;;;;;123.78;90.03;;;;;;;;;;7301477;19;140781;-75
2023/08/21 06:07:47;;;;;;;128.85;92.50;;;;;;;;;;7302020;19;140624;-76
2023/08/21 06:12:51;;;;;;;136.25;95.63;;;;;;;;;;7301478;19;142075;-76
2023/08/21 06:15:18;;;;;;;140.68;99.05;;;;;;;;;;7300240;19;140671;-76
2023/08/21 06:17:45;;;;;;;141.00;99.05;;;;;;;;;;7301753;19;140815;-76
2023/08/21 06:22:52;;;;;;;257.92;146.13;;;;;;;;;;7301607;19;140690;-76
2023/08/21 06:25:19;;;;;;;101.25;78.40;;;;;;;;;;7301409;19;140450;-76
2023/08/21 06:27:46;;;;;;;143.68;100.05;;;;;;;;;;7301321;19;140839;-76
2023/08/21 06:30:25;;;;;;;171.45;111.50;;;;;;;;;;7301476;19;140557;-76
2023/08/21 06:32:52;;;;;;;266.40;150.10;;;;;;;;;;7300898;19;142677;-76
2023/08/21 06:35:19;;;;;;;221.63;131.15;;;;;;;;;;7301051;19;140637;-76
2023/08/21 06:37:46;;;;;;;269.98;150.48;;;;;;;;;;7300920;19;140786;-76
2023/08/21 06:40:14;;;;;;;396.85;210.10;;;;;;;;;;7301176;19;140499;-76
2023/08/21 06:42:41;;;;;;;155.20;104.88;;;;;;;;;;7300982;19;141978;-76
2023/08/21 06:45:08;;;;;;;165.65;109.63;;;;;;;;;;7301031;19;140419;-76
2023/08/21 06:47:35;;;;;;;254.02;144.50;;;;;;;;;;7301222;19;140794;-76
2023/08/21 06:50:02;;;;;;;266.30;150.48;;;;;;;;;;7300573;19;140937;-76
2023/08/21 06:52:29;;;;;;;245.27;139.88;;;;;;;;;;7302018;19;141995;-76
2023/08/21 06:54:57;;;;;;;247.85;142.15;;;;;;;;;;7301121;19;140583;-77
2023/08/21 06:57:24;;;;;;;340.42;183.57;;;;;;;;;;7300702;19;140670;-76
2023/08/21 06:59:51;;;;;;;164.73;109.03;;;;;;;;;;7300133;19;140977;-76
2023/08/21 07:02:19;;;;;;;343.33;190.65;;;;;;;;;;7305108;19;141873;-76
2023/08/21 07:04:46;;;;;;;318.75;174.85;;;;;;;;;;7307987;19;140597;-76
2023/08/21 07:07:13;;;;;;;332.88;181.15;;;;;;;;;;7306738;19;140792;-76
2023/08/21 07:09:40;;;;;;;431.50;234.65;;;;;;;;;;7307171;19;141082;-76
2023/08/21 07:12:07;;;;;;;417.42;225.55;;;;;;;;;;7307421;19;141969;-76
2023/08/21 07:14:34;;;;;;;293.80;166.98;;;;;;;;;;7307163;19;140557;-76
2023/08/21 07:20:05;;;;;;;428.98;233.48;;;;;;;;;;7294093;19;143083;-77
2023/08/21 07:22:32;;;;;;;148.57;99.97;;;;;;;;;;7305154;19;142252;-77
2023/08/21 07:25:03;;;;;;;152.18;103.00;;;;;;;;;;7307177;19;140576;-77
2023/08/21 07:27:31;;;;;;;148.40;101.32;;;;;;;;;;7307124;19;140714;-77
2023/08/21 07:29:58;;;;;;;142.60;98.55;;;;;;;;;;7307581;19;140541;-77
2023/08/21 07:32:25;;;;;;;154.60;102.47;;;;;;;;;;7306815;19;140755;-77
2023/08/21 07:34:54;;;;;;;151.20;103.72;;;;;;;;;;7306398;19;140695;-77
2023/08/21 07:37:21;;;;;;;165.63;109.03;;;;;;;;;;7306311;19;140486;-77
2023/08/21 07:39:48;;;;;;;179.45;113.40;;;;;;;;;;7306810;19;141346;-77
2023/08/21 07:42:15;;;;;;;188.38;117.80;;;;;;;;;;7306308;19;141637;-78
2023/08/21 07:44:42;;;;;;;180.35;114.82;;;;;;;;;;7306789;19;140569;-77
2023/08/21 07:47:10;;;;;;;194.65;119.85;;;;;;;;;;7306577;19;140586;-77
2023/08/21 07:49:37;;;;;;;203.52;124.57;;;;;;;;;;7306248;19;141026;-77
2023/08/21 07:52:04;;;;;;;214.23;127.32;;;;;;;;;;7305477;19;142399;-75
2023/08/21 07:54:32;;;;;;;280.15;159.85;;;;;;;;;;7306751;19;140457;-75
2023/08/21 07:56:59;;;;;;;446.95;249.45;;;;;;;;;;7304908;19;140580;-74
2023/08/21 07:59:29;;;;;;;521.78;292.73;;;;;;;;;;7304932;19;142076;-74
2023/08/21 08:01:56;;;;;;;185.13;115.50;;;;;;;;;;7303980;19;142437;-74
2023/08/21 08:07:09;;;;;;;485.67;269.17;;;;;;;;;;7305867;19;140588;-82
2023/08/21 08:09:36;;;;;;;536.47;305.00;;;;;;;;;;7304173;19;140904;-86
2023/08/21 08:12:03;;;;;;;335.38;183.52;;;;;;;;;;7314931;19;142034;-86
2023/08/21 08:14:35;;;;;;;547.45;314.77;;;;;;;;;;7276475;19;142719;-81
2023/08/21 08:17:03;;;;;;;268.65;151.05;;;;;;;;;;7332496;19;140414;-82
2023/08/21 08:19:30;;;;;;;462.42;261.75;;;;;;;;;;7308673;19;140553;-77
2023/08/21 08:21:57;;;;;;;433.65;240.40;;;;;;;;;;7303886;19;140636;-78
2023/08/21 08:24:25;;;;;;;495.23;282.08;;;;;;;;;;7305404;19;140537;-77
2023/08/21 08:26:52;;;;;;;291.17;163.55;;;;;;;;;;7306058;19;140715;-77
2023/08/21 08:29:19;;;;;;;314.38;171.95;;;;;;;;;;7304601;19;141074;-77
2023/08/21 08:31:46;;;;;;;328.05;179.55;;;;;;;;;;7304702;19;142523;-77
2023/08/21 08:34:14;;;;;;;310.35;170.25;;;;;;;;;;7304166;19;140869;-77
2023/08/21 08:36:41;;;;;;;311.23;169.88;;;;;;;;;;7304805;19;141224;-76
2023/08/21 08:39:08;;;;;;;343.20;187.45;;;;;;;;;;7303120;19;141135;-77
2023/08/21 08:41:43;;;;;;;320.55;176.02;;;;;;;;;;7304716;19;142582;-77
2023/08/21 08:44:12;;;;;;;396.35;214.05;;;;;;;;;;7304424;19;140564;-77
2023/08/21 08:46:39;;;;;;;325.85;176.77;;;;;;;;;;7304472;19;140479;-77
2023/08/21 08:49:06;;;;;;;384.80;206.55;;;;;;;;;;7304186;19;140957;-77
2023/08/21 08:51:37;;;;;;;349.33;190.30;;;;;;;;;;7303358;19;142013;-77
2023/08/21 08:54:04;;;;;;;;;;;;;;;;;;7305207;19;140746;-76
2023/08/21 08:56:31;;;;;;;392.30;213.45;;;;;;;;;;7304728;19;140538;-76
2023/08/21 08:58:58;;;;;;;361.00;195.05;;;;;;;;;;7303779;19;141357;-76
2023/08/21 09:01:26;;;;;;;380.25;206.07;;;;;;;;;;7304008;19;142803;-76
2023/08/21 09:03:54;;;;;;;383.67;205.98;;;;;;;;;;7303796;19;140357;-76
2023/08/21 09:06:21;;;;;;;398.83;213.65;;;;;;;;;;7302598;19;140547;-76
2023/08/21 09:08:55;;;;;;;401.67;215.63;;;;;;;;;;7303470;19;141260;-78
2023/08/21 09:11:22;;;;;;;408.45;216.85;;;;;;;;;;7303013;19;140650;-77
2023/08/21 09:13:50;;;;;;;337.73;182.95;;;;;;;;;;7303527;19;140741;-78
2023/08/21 09:16:18;;;;;;;401.05;216.77;;;;;;;;;;7303064;19;140703;-78
2023/08/21 09:18:49;;;;;;;376.75;203.52;;;;;;;;;;7304001;19;140831;-78
2023/08/21 09:21:20;;;;;;;392.92;209.52;;;;;;;;;;7302844;19;140679;-78
2023/08/21 09:23:48;;;;;;;338.38;184.23;;;;;;;;;;7303699;19;140481;-75
2023/08/21 09:26:20;;;;;;;379.50;204.85;;;;;;;;;;7301027;19;140884;-77
2023/08/21 09:28:50;;;;;;;314.60;171.65;;;;;;;;;;7303099;19;141151;-76
2023/08/21 09:31:24;;;;;;;378.63;204.48;;;;;;;;;;7303286;19;142755;-79
2023/08/21 09:33:59;;;;;;;337.90;184.25;;;;;;;;;;7304348;19;140666;-80
2023/08/21 09:36:26;;;;;;;366.30;195.85;;;;;;;;;;7301482;19;140605;-82
2023/08/21 09:38:54;;;;;;;369.98;196.75;;;;;;;;;;7302620;19;141226;-79
2023/08/21 09:41:21;;;;;;;348.50;187.25;;;;;;;;;;7302356;19;141105;-79
2023/08/21 09:43:49;;;;;;;379.55;203.80;;;;;;;;;;7302816;19;140942;-79
2023/08/21 09:46:17;;;;;;;362.88;196.18;;;;;;;;;;7301173;19;140712;-80
2023/08/21 09:48:47;;;;;;;366.90;196.13;;;;;;;;;;7302205;19;141454;-79
2023/08/21 09:51:14;;;;;;;380.30;203.38;;;;;;;;;;7302087;19;143120;-79
2023/08/21 09:53:41;;;;;;;394.80;211.38;;;;;;;;;;7302981;19;140450;-79
2023/08/21 09:56:08;;;;;;;413.88;219.93;;;;;;;;;;7300917;19;142358;-78
2023/08/21 09:58:36;;;;;;;318.45;170.18;;;;;;;;;;7304794;19;140943;-79
2023/08/21 10:01:13;;;;;;;345.63;186.50;;;;;;;;;;7300953;19;141829;-78
2023/08/21 10:03:42;;;;;;;396.17;211.88;;;;;;;;;;7301848;19;141762;-78
2023/08/21 10:06:10;;;;;;;395.25;211.30;;;;;;;;;;7303661;19;140492;-79
2023/08/21 10:08:39;;;;;;;354.00;191.65;;;;;;;;;;7301955;19;141004;-78
2023/08/21 10:11:08;;;;;;;396.35;214.52;;;;;;;;;;7302354;19;142785;-79
2023/08/21 10:13:36;;;;;;;402.10;214.57;;;;;;;;;;7306219;19;140579;-79
2023/08/21 10:16:05;;;;;;;407.55;218.68;;;;;;;;;;7309031;19;140480;-79
2023/08/21 10:18:36;;;;;;;407.77;218.32;;;;;;;;;;7304583;19;141598;-78
2023/08/21 10:21:19;;;;;;;400.95;213.65;;;;;;;;;;7300236;19;140829;-78
2023/08/21 10:26:47;;;;;;;432.40;231.95;;;;;;;;;;7305109;19;140504;-81
2023/08/21 10:29:14;;;;;;;436.88;235.27;;;;;;;;;;7301347;19;141194;-79
2023/08/21 10:31:43;;;;;;;371.23;199.68;;;;;;;;;;7301702;19;141803;-83
2023/08/21 10:34:13;;;;;;;306.08;167.30;;;;;;;;;;7301873;19;140529;-80
2023/08/21 10:36:43;;;;;;;335.42;182.15;;;;;;;;;;7299175;19;140980;-78
2023/08/21 10:54:49;;;;;;;244.73;139.23;;;;;;;;;;7272470;19;144106;-79
2023/08/21 10:57:17;;;;;;;324.02;174.80;;;;;;;;;;7299840;19;140498;-78
2023/08/21 10:59:54;;;;;;;354.48;191.05;;;;;;;;;;7300815;19;140598;-79
2023/08/21 11:02:22;;;;;;;339.90;182.45;;;;;;;;;;7300700;19;141902;-78
2023/08/21 11:04:50;;;;;;;375.83;200.38;;;;;;;;;;7300048;19;140661;-79
2023/08/21 11:07:17;;;;;;;302.58;167.02;;;;;;;;;;7297848;19;140994;-78
2023/08/21 11:09:45;;;;;;;334.63;182.10;;;;;;;;;;7298155;19;140743;-80
2023/08/21 11:12:13;;;;;;;339.25;182.00;;;;;;;;;;7299980;19;141573;-80
2023/08/21 11:14:40;;;;;;;374.98;203.07;;;;;;;;;;7299827;19;141882;-79
2023/08/21 11:17:08;;;;;;;369.40;196.73;;;;;;;;;;7301092;19;140739;-79
2023/08/21 11:19:35;;;;;;;371.20;199.95;;;;;;;;;;7300203;19;140498;-79
2023/08/21 11:22:06;;;;;;;364.13;194.73;;;;;;;;;;7289396;19;145018;-79
2023/08/21 11:24:33;;;;;;;360.30;194.25;;;;;;;;;;7299418;19;142759;-79
2023/08/21 11:27:00;;;;;;;373.35;201.00;;;;;;;;;;7298646;19;140642;-80
2023/08/21 11:29:28;;;;;;;351.90;189.05;;;;;;;;;;7300068;19;140394;-80
2023/08/21 11:31:55;;;;;;;344.80;185.52;;;;;;;;;;7299540;19;141555;-80
2023/08/21 11:34:22;;;;;;;355.67;190.77;;;;;;;;;;7298840;19;140893;-80
2023/08/21 11:36:51;;;;;;;343.00;185.30;;;;;;;;;;7298846;19;140806;-80
2023/08/21 11:39:18;;;;;;;369.48;196.45;;;;;;;;;;7299664;19;140551;-79
2023/08/21 11:41:54;;;;;;;377.90;202.52;;;;;;;;;;7299221;19;140978;-80
2023/08/21 11:44:21;;;;;;;332.73;181.23;;;;;;;;;;7299130;19;141957;-80
2023/08/21 11:46:50;;;;;;;354.77;190.55;;;;;;;;;;7299914;19;140662;-80
2023/08/21 11:49:18;;;;;;;327.42;177.32;;;;;;;;;;7303002;19;140690;-80
2023/08/21 11:51:46;;;;;;;369.25;200.05;;;;;;;;;;7303907;19;142040;-80
2023/08/21 11:54:13;;;;;;;241.13;139.35;;;;;;;;;;7305402;19;141757;-80
2023/08/21 11:56:42;;;;;;;313.35;170.73;;;;;;;;;;7306840;19;140533;-80
2023/08/21 11:59:09;;;;;;;318.50;173.50;;;;;;;;;;7306635;19;140714;-80
2023/08/21 12:01:36;;;;;;;312.63;170.20;;;;;;;;;;7305785;19;141039;-80
2023/08/21 12:04:14;;;;;;;332.08;179.82;;;;;;;;;;7305642;19;142033;-80
2023/08/21 12:06:44;;;;;;;350.58;187.77;;;;;;;;;;7306473;19;140774;-81
2023/08/21 12:09:11;;;;;;;;;;;;;;;;;;7303662;19;140640;-80
2023/08/21 12:11:39;;;;;;;349.05;190.02;;;;;;;;;;7304402;19;140950;-81
2023/08/21 12:14:09;;;;;;;323.40;177.27;;;;;;;;;;7305936;19;142609;-80
2023/08/21 12:16:36;;;;;;;348.50;190.38;;;;;;;;;;7306352;19;140397;-83
2023/08/21 12:19:04;;;;;;;332.27;178.93;;;;;;;;;;7306532;19;140610;-83
2023/08/21 12:27:14;;;;;;;327.85;179.48;;;;;;;;;;7305410;19;140440;-81
2023/08/21 12:29:41;;;;;;;322.70;176.63;;;;;;;;;;7303767;19;140694;-81
2023/08/21 12:41:16;;;;;;;201.20;122.47;;;;;;;;;;7288301;19;143798;-79
2023/08/21 12:43:44;;;;;;;261.73;148.05;;;;;;;;;;7304962;19;140636;-79
2023/08/21 12:46:11;;;;;;;289.55;157.13;;;;;;;;;;7304858;19;141296;-79
2023/08/21 12:48:38;;;;;;;307.80;165.60;;;;;;;;;;7305416;19;140444;-79
2023/08/21 12:53:59;;;;;;;308.70;166.00;;;;;;;;;;7306672;19;141505;-78
2023/08/21 12:56:26;;;;;;;319.65;169.77;;;;;;;;;;7302793;19;142236;-78
2023/08/21 12:58:53;;;;;;;351.85;186.75;;;;;;;;;;7304931;19;140547;-77
2023/08/21 13:01:20;;;;;;;329.20;174.13;;;;;;;;;;7308736;19;140592;-79
2023/08/21 13:03:47;;;;;;;357.80;189.32;;;;;;;;;;7319937;19;140672;-78
2023/08/21 13:06:14;;;;;;;355.02;189.77;;;;;;;;;;7319107;19;140914;-78
2023/08/21 13:08:41;;;;;;;350.05;187.27;;;;;;;;;;7308011;19;140643;-79
2023/08/21 13:11:09;;;;;;;358.35;191.88;;;;;;;;;;7307437;19;140700;-79
2023/08/21 13:13:37;;;;;;;354.10;189.30;;;;;;;;;;7307683;19;141324;-79
2023/08/21 13:16:04;;;;;;;356.83;189.02;;;;;;;;;;7303971;19;143024;-79
2023/08/21 13:18:31;;;;;;;325.77;173.93;;;;;;;;;;7301439;19;140544;-79
2023/08/21 13:20:58;;;;;;;359.75;191.18;;;;;;;;;;7303638;19;141027;-79
2023/08/21 13:23:25;;;;;;;344.88;183.85;;;;;;;;;;7302874;19;141710;-79
2023/08/21 13:25:55;;;;;;;351.50;187.52;;;;;;;;;;7303215;19;143277;-79
2023/08/21 13:28:22;;;;;;;256.42;139.25;;;;;;;;;;7300636;19;140787;-79
2023/08/21 13:30:49;;;;;;;322.48;174.43;;;;;;;;;;7303792;19;140449;-79
2023/08/21 13:33:17;;;;;;;337.73;181.63;;;;;;;;;;7303016;19;140463;-79
2023/08/21 13:35:45;;;;;;;318.10;172.20;;;;;;;;;;7302584;19;142026;-79
2023/08/21 13:38:13;;;;;;;313.52;167.93;;;;;;;;;;7303308;19;140485;-79
2023/08/21 13:40:40;;;;;;;326.17;176.88;;;;;;;;;;7302985;19;140777;-79
2023/08/21 13:43:12;;;;;;;334.08;180.20;;;;;;;;;;7302910;19;141956;-79
2023/08/21 13:45:39;;;;;;;321.00;172.63;;;;;;;;;;7302651;19;142644;-79
2023/08/21 13:48:07;;;;;;;337.25;182.82;;;;;;;;;;7302781;19;140876;-79
2023/08/21 13:50:34;;;;;;;341.52;184.25;;;;;;;;;;7303056;19;140847;-79
2023/08/21 13:53:01;;;;;;;330.95;178.93;;;;;;;;;;7302365;19;140978;-79
2023/08/21 13:55:28;;;;;;;298.58;161.88;;;;;;;;;;7302911;19;142323;-79
2023/08/21 13:57:59;;;;;;;299.00;161.40;;;;;;;;;;7302825;19;140622;-79
2023/08/21 14:00:26;;;;;;;324.52;174.80;;;;;;;;;;7302529;19;141722;-78
2023/08/21 14:02:56;;;;;;;347.45;189.90;;;;;;;;;;7302546;19;141029;-79
2023/08/21 14:05:23;;;;;;;312.63;168.45;;;;;;;;;;7301990;19;142226;-78
2023/08/21 14:07:50;;;;;;;325.40;174.10;;;;;;;;;;7301587;19;140632;-78
2023/08/21 14:10:17;;;;;;;341.80;186.18;;;;;;;;;;7301348;19;140636;-77
2023/08/21 14:12:44;;;;;;;350.27;187.88;;;;;;;;;;7301632;19;141690;-79
2023/08/21 14:15:11;;;;;;;339.92;182.18;;;;;;;;;;7301601;19;142075;-78
2023/08/21 14:17:38;;;;;;;355.27;190.15;;;;;;;;;;7302873;19;140604;-79
2023/08/21 14:20:09;;;;;;;332.23;178.27;;;;;;;;;;7299279;19;141532;-78
2023/08/21 14:22:37;;;;;;;333.45;179.77;;;;;;;;;;7300368;19;142311;-78
2023/08/21 14:25:05;;;;;;;343.42;186.98;;;;;;;;;;7301340;19;142054;-78
2023/08/21 14:27:32;;;;;;;349.30;188.48;;;;;;;;;;7301693;19;140403;-78
2023/08/21 14:30:00;;;;;;;352.17;191.63;;;;;;;;;;7302039;19;140452;-78
2023/08/21 14:32:27;;;;;;;358.92;192.45;;;;;;;;;;7302779;19;142269;-78
2023/08/21 14:34:54;;;;;;;367.48;196.63;;;;;;;;;;7303642;19;141858;-78
2023/08/21 14:37:23;;;;;;;386.08;207.13;;;;;;;;;;7304185;19;140627;-78
2023/08/21 14:39:50;;;;;;;374.77;199.45;;;;;;;;;;7304247;19;140912;-78
2023/08/21 14:45:06;;;;;;;328.77;178.05;;;;;;;;;;7297201;19;142033;-79
2023/08/21 14:47:35;;;;;;;333.42;178.55;;;;;;;;;;7303885;19;140583;-79
2023/08/21 14:50:03;;;;;;;340.10;183.63;;;;;;;;;;7307315;19;140507;-80
2023/08/21 14:52:30;;;;;;;335.85;182.13;;;;;;;;;;7302336;19;140505;-76
2023/08/21 14:54:57;;;;;;;329.52;177.35;;;;;;;;;;7299900;19;140782;-78
2023/08/21 14:57:24;;;;;;;332.05;177.50;;;;;;;;;;7300993;19;140599;-77
2023/08/21 14:59:51;;;;;;;345.25;182.52;;;;;;;;;;7300912;19;140395;-77
2023/08/21 15:02:19;;;;;;;342.50;182.18;;;;;;;;;;7299344;19;140991;-77
2023/08/21 15:04:46;;;;;;;346.38;186.48;;;;;;;;;;7300400;19;142755;-78